createdAt,value
2022-09-23T00:01:11.863Z,100912.69
2022-09-23T00:04:15.740Z,100908.03
2022-09-23T00:07:22.639Z,100913.50
2022-09-23T00:10:31.199Z,100906.62
2022-09-23T00:17:32.485Z,100909.25
2022-09-23T00:20:36.807Z,100908.03
2022-09-23T00:23:41.677Z,100903.19
2022-09-23T00:26:51.976Z,100902.59
2022-09-23T00:30:00.066Z,100895.72
2022-09-23T00:33:07.262Z,100902.59
2022-09-23T00:36:16.512Z,100898.34
2022-09-23T00:39:22.408Z,100893.72
2022-09-23T00:42:28.625Z,100894.72
2022-09-23T00:45:32.362Z,100896.94
2022-09-23T00:48:45.089Z,100883.81
2022-09-23T00:51:59.216Z,100880.00
2022-09-23T00:55:08.132Z,100883.00
2022-09-23T00:58:15.324Z,100883.63
2022-09-23T01:01:29.080Z,100885.81
2022-09-23T01:04:32.025Z,100883.81
2022-09-23T01:07:35.341Z,100885.03
2022-09-23T01:10:57.498Z,100890.87
2022-09-23T01:14:10.527Z,100894.53
2022-09-23T01:17:25.014Z,100891.72
2022-09-23T01:20:45.208Z,100893.72
2022-09-23T01:24:07.885Z,100897.75
2022-09-23T01:27:25.557Z,100900.19
2022-09-23T01:30:48.358Z,100902.59
2022-09-23T01:33:56.791Z,100901.59
2022-09-23T01:37:30.974Z,100894.31
2022-09-23T01:41:00.303Z,100900.78
2022-09-23T01:44:43.884Z,100896.94
2022-09-23T01:47:58.415Z,100896.12
2022-09-23T01:51:28.960Z,100892.31
2022-09-23T01:55:05.560Z,100888.47
2022-09-23T01:58:16.088Z,100888.84
2022-09-23T02:01:46.256Z,100894.09
2022-09-23T02:05:11.020Z,100891.28
2022-09-23T02:08:21.467Z,100882.19
2022-09-23T02:11:25.292Z,100883.22
2022-09-23T02:14:41.689Z,100876.56
2022-09-23T02:18:20.519Z,100883.22
2022-09-23T02:21:30.025Z,100883.81
2022-09-23T02:24:39.054Z,100882.00
2022-09-23T02:27:57.700Z,100887.84
2022-09-23T02:31:34.223Z,100882.81
2022-09-23T02:35:07.114Z,100884.84
2022-09-23T02:38:36.885Z,100884.03
2022-09-23T02:41:40.158Z,100883.81
2022-09-23T02:44:43.332Z,100882.41
2022-09-23T02:47:50.519Z,100882.00
2022-09-23T02:50:54.804Z,100884.03
2022-09-23T02:53:59.038Z,100873.91
2022-09-23T02:57:28.709Z,100885.63
2022-09-23T03:01:11.436Z,100882.78
2022-09-23T03:04:49.260Z,100890.47
2022-09-23T03:08:07.693Z,100891.66
2022-09-23T03:11:13.600Z,100887.81
2022-09-23T03:14:29.137Z,100887.22
2022-09-23T03:18:08.925Z,100883.97
2022-09-23T03:21:29.471Z,100889.22
2022-09-23T03:24:58.321Z,100884.37
2022-09-23T03:28:08.123Z,100887.97
2022-09-23T03:31:15.331Z,100890.38
2022-09-23T03:34:28.289Z,100888.78
2022-09-23T03:37:49.324Z,100896.84
2022-09-23T03:41:01.531Z,100894.81
2022-09-23T03:44:07.306Z,100894.41
2022-09-23T03:47:13.739Z,100888.75
2022-09-23T03:50:17.393Z,100888.13
2022-09-23T03:53:22.244Z,100889.75
2022-09-23T03:56:25.707Z,100899.25
2022-09-23T03:59:51.693Z,100886.34
2022-09-23T04:02:54.670Z,100887.97
2022-09-23T04:05:58.433Z,100893.59
2022-09-23T04:09:21.786Z,100891.56
2022-09-23T04:12:27.566Z,100890.75
2022-09-23T04:15:33.851Z,100896.41
2022-09-23T04:18:40.851Z,100900.25
2022-09-23T04:21:44.941Z,100895.78
2022-09-23T04:24:49.603Z,100898.19
2022-09-23T04:27:54.906Z,100899.22
2022-09-23T04:31:00.417Z,100903.81
2022-09-23T04:34:03.540Z,100900.56
2022-09-23T04:37:07.620Z,100896.81
2022-09-23T04:40:10.374Z,100909.09
2022-09-23T04:43:23.688Z,100906.84
2022-09-23T04:47:08.219Z,100908.66
2022-09-23T04:50:15.635Z,100905.81
2022-09-23T04:53:21.626Z,100905.63
2022-09-23T04:56:32.629Z,100913.31
2022-09-23T04:59:36.282Z,100908.06
2022-09-23T05:02:59.981Z,100902.41
2022-09-23T05:06:06.144Z,100916.59
2022-09-23T05:09:16.347Z,100919.81
2022-09-23T05:12:18.868Z,100916.22
2022-09-23T05:15:22.233Z,100930.56
2022-09-23T05:18:27.295Z,100925.53
2022-09-23T05:21:55.735Z,100920.53
2022-09-23T05:25:18.760Z,100930.00
2022-09-23T05:28:32.984Z,100942.16
2022-09-23T05:31:35.694Z,100943.38
2022-09-23T05:34:43.192Z,100948.63
2022-09-23T05:37:49.559Z,100942.19
2022-09-23T05:41:28.581Z,100944.38
2022-09-23T05:44:32.991Z,100944.59
2022-09-23T05:47:38.300Z,100939.75
2022-09-23T05:51:02.373Z,100939.31
2022-09-23T05:54:25.777Z,100945.34
2022-09-23T05:57:29.372Z,100940.00
2022-09-23T06:00:39.395Z,100932.06
2022-09-23T06:03:51.925Z,100940.47
2022-09-23T06:07:03.288Z,100945.47
2022-09-23T06:10:07.508Z,100937.63
2022-09-23T06:13:15.976Z,100936.56
2022-09-23T06:16:19.522Z,100931.41
2022-09-23T06:19:21.981Z,100938.31
2022-09-23T06:22:28.226Z,100937.72
2022-09-23T06:25:35.554Z,100938.69
2022-09-23T06:28:47.709Z,100942.75
2022-09-23T06:31:55.153Z,100935.81
2022-09-23T06:35:04.588Z,100937.47
2022-09-23T06:38:09.358Z,100942.03
2022-09-23T06:41:13.365Z,100937.78
2022-09-23T06:44:16.929Z,100938.75
2022-09-23T06:47:22.191Z,100939.03
2022-09-23T06:50:29.150Z,100947.62
2022-09-23T06:53:33.955Z,100947.25
2022-09-23T06:56:40.041Z,100950.72
2022-09-23T06:59:50.111Z,100945.66
2022-09-23T07:03:23.210Z,100948.66
2022-09-23T07:06:28.196Z,100946.38
2022-09-23T07:09:33.642Z,100952.25
2022-09-23T07:12:46.350Z,100951.16
2022-09-23T07:15:55.223Z,100945.44
2022-09-23T07:19:00.355Z,100950.91
2022-09-23T07:22:05.470Z,100950.66
2022-09-23T07:25:12.482Z,100953.47
2022-09-23T07:28:15.437Z,100955.19
2022-09-23T07:31:31.023Z,100953.69
2022-09-23T07:34:37.813Z,100951.16
2022-09-23T07:37:40.798Z,100951.22
2022-09-23T07:40:49.922Z,100949.88
2022-09-23T07:43:58.916Z,100950.44
2022-09-23T07:47:06.956Z,100940.88
2022-09-23T07:50:11.704Z,100959.28
2022-09-23T07:53:16.016Z,100952.37
2022-09-23T07:56:25.385Z,100951.59
2022-09-23T07:59:31.976Z,100954.28
2022-09-23T08:02:35.214Z,100941.47
2022-09-23T08:05:38.784Z,100948.94
2022-09-23T08:08:44.500Z,100946.25
2022-09-23T08:11:50.747Z,100948.53
2022-09-23T08:14:53.958Z,100940.88
2022-09-23T08:18:00.531Z,100943.72
2022-09-23T08:21:08.092Z,100940.53
2022-09-23T08:24:18.387Z,100952.25
2022-09-23T08:27:23.476Z,100939.06
2022-09-23T08:30:26.332Z,100946.53
2022-09-23T08:33:29.161Z,100942.97
2022-09-23T08:36:36.186Z,100938.34
2022-09-23T08:40:00.978Z,100937.56
2022-09-23T08:43:17.078Z,100933.78
2022-09-23T08:46:30.937Z,100930.38
2022-09-23T08:49:58.109Z,100928.47
2022-09-23T08:53:07.649Z,100924.56
2022-09-23T08:56:19.392Z,100927.19
2022-09-23T08:59:35.319Z,100933.84
2022-09-23T09:03:18.694Z,100927.25
2022-09-23T09:06:53.059Z,100929.25
2022-09-23T09:10:18.713Z,100925.00
2022-09-23T09:14:02.740Z,100931.63
2022-09-23T09:17:17.886Z,100933.62
2022-09-23T09:20:24.952Z,100935.56
2022-09-23T09:23:38.108Z,100936.59
2022-09-23T09:26:40.591Z,100928.72
2022-09-23T09:29:50.095Z,100925.19
2022-09-23T09:33:02.666Z,100931.16
2022-09-23T09:36:21.652Z,100926.44
2022-09-23T09:39:26.303Z,100922.66
2022-09-23T09:42:41.672Z,100928.19
2022-09-23T09:46:23.482Z,100924.59
2022-09-23T09:49:41.339Z,100913.62
2022-09-23T09:52:43.865Z,100906.28
2022-09-23T09:56:04.991Z,100909.41
2022-09-23T09:59:32.708Z,100904.69
2022-09-23T10:02:40.226Z,100900.91
2022-09-23T10:05:46.619Z,100895.53
2022-09-23T10:09:09.705Z,100894.13
2022-09-23T10:12:20.440Z,100893.53
2022-09-23T10:15:33.186Z,100885.56
2022-09-23T10:18:42.100Z,100884.37
2022-09-23T10:21:52.820Z,100892.91
2022-09-23T10:25:03.690Z,100888.37
2022-09-23T10:28:30.807Z,100892.28
2022-09-23T10:31:35.793Z,100885.41
2022-09-23T10:34:47.227Z,100877.34
2022-09-23T10:38:13.352Z,100876.91
2022-09-23T10:41:45.985Z,100884.00
2022-09-23T10:45:51.056Z,100888.47
2022-09-23T10:49:19.447Z,100877.28
2022-09-23T10:52:38.064Z,100882.22
2022-09-23T10:56:18.154Z,100867.72
2022-09-23T11:00:00.890Z,100866.28
2022-09-23T11:03:17.528Z,100863.41
2022-09-23T11:06:46.230Z,100860.16
2022-09-23T11:10:28.890Z,100850.22
2022-09-23T11:14:40.408Z,100858.62
2022-09-23T11:18:29.607Z,100855.41
2022-09-23T11:22:16.222Z,100837.97
2022-09-23T11:25:26.040Z,100840.28
2022-09-23T11:29:04.557Z,100830.75
2022-09-23T11:32:39.695Z,100839.69
2022-09-23T11:36:24.566Z,100839.19
2022-09-23T11:39:34.707Z,100821.75
2022-09-23T11:43:18.551Z,100830.09
2022-09-23T11:46:33.705Z,100815.22
2022-09-23T11:49:54.803Z,100817.59
2022-09-23T11:53:11.879Z,100810.00
2022-09-23T11:56:36.224Z,100809.28
2022-09-23T11:59:51.196Z,100807.84
2022-09-23T12:03:09.323Z,100813.34
2022-09-23T12:06:19.847Z,100807.06
2022-09-23T12:10:00.249Z,100816.78
2022-09-23T12:13:08.326Z,100802.84
2022-09-23T12:16:49.061Z,100809.69
2022-09-23T12:20:28.193Z,100802.59
2022-09-23T12:23:49.359Z,100798.03
2022-09-23T12:26:58.897Z,100794.44
2022-09-23T12:30:24.021Z,100785.09
2022-09-23T12:33:32.524Z,100788.03
2022-09-23T12:36:38.788Z,100779.06
2022-09-23T12:39:48.517Z,100775.00
2022-09-23T12:42:53.741Z,100783.03
2022-09-23T12:46:17.582Z,100768.41
2022-09-23T12:49:29.764Z,100762.41
2022-09-23T12:52:33.522Z,100763.13
2022-09-23T12:55:39.037Z,100761.06
2022-09-23T12:58:44.828Z,100762.37
2022-09-23T13:01:51.040Z,100758.22
2022-09-23T13:05:32.008Z,100758.78
2022-09-23T13:08:38.779Z,100749.72
2022-09-23T13:11:49.419Z,100747.47
2022-09-23T13:15:00.727Z,100747.00
2022-09-23T13:18:18.979Z,100742.34
2022-09-23T13:21:42.842Z,100740.88
2022-09-23T13:24:54.809Z,100734.22
2022-09-23T13:28:01.605Z,100740.66
2022-09-23T13:31:13.752Z,100733.75
2022-09-23T13:34:21.370Z,100732.13
2022-09-23T13:37:31.585Z,100726.41
2022-09-23T13:40:35.453Z,100724.66
2022-09-23T13:43:53.661Z,100723.03
2022-09-23T13:47:03.237Z,100724.47
2022-09-23T13:50:13.219Z,100720.94
2022-09-23T13:53:24.108Z,100707.91
2022-09-23T13:56:31.119Z,100710.06
2022-09-23T13:59:46.811Z,100709.00
2022-09-23T14:02:53.262Z,100710.59
2022-09-23T14:06:08.771Z,100717.53
2022-09-23T14:09:13.789Z,100717.09
2022-09-23T14:12:22.412Z,100714.31
2022-09-23T14:15:48.757Z,100709.97
2022-09-23T14:18:59.656Z,100706.38
2022-09-23T14:22:09.236Z,100706.28
2022-09-23T14:25:45.838Z,100701.75
2022-09-23T14:28:51.734Z,100699.75
2022-09-23T14:32:00.667Z,100693.53
2022-09-23T14:35:04.002Z,100692.56
2022-09-23T14:38:49.697Z,100692.19
2022-09-23T14:41:54.715Z,100694.75
2022-09-23T14:44:57.480Z,100686.41
2022-09-23T14:48:10.723Z,100685.22
2022-09-23T14:51:17.195Z,100679.66
2022-09-23T14:54:44.159Z,100680.41
2022-09-23T14:58:02.041Z,100679.88
2022-09-23T15:01:32.806Z,100681.00
2022-09-23T15:04:36.502Z,100671.13
2022-09-23T15:08:05.586Z,100676.72
2022-09-23T15:11:11.207Z,100675.28
2022-09-23T15:14:36.762Z,100671.59
2022-09-23T15:17:37.578Z,100670.13
2022-09-23T15:20:40.956Z,100671.34
2022-09-23T15:24:06.192Z,100672.28
2022-09-23T15:27:31.727Z,100669.28
2022-09-23T15:30:35.624Z,100670.81
2022-09-23T15:33:40.866Z,100677.34
2022-09-23T15:36:43.736Z,100666.34
2022-09-23T15:39:46.277Z,100668.09
2022-09-23T15:42:52.637Z,100673.16
2022-09-23T15:45:58.614Z,100663.47
2022-09-23T15:49:03.223Z,100665.97
2022-09-23T15:52:10.627Z,100664.59
2022-09-23T15:55:22.923Z,100667.19
2022-09-23T15:58:30.290Z,100671.75
2022-09-23T16:01:39.631Z,100663.91
2022-09-23T16:04:42.603Z,100673.50
2022-09-23T16:07:48.329Z,100675.69
2022-09-23T16:10:51.687Z,100673.63
2022-09-23T16:13:54.512Z,100673.88
2022-09-23T16:16:57.920Z,100680.84
2022-09-23T16:20:07.814Z,100676.91
2022-09-23T16:23:34.843Z,100679.00
2022-09-23T16:26:39.611Z,100684.37
2022-09-23T16:29:45.505Z,100679.34
2022-09-23T16:32:52.777Z,100678.56
2022-09-23T16:36:01.143Z,100680.72
2022-09-23T16:39:07.327Z,100678.91
2022-09-23T16:42:13.735Z,100679.72
2022-09-23T16:45:22.291Z,100677.06
2022-09-23T16:48:25.755Z,100678.09
2022-09-23T16:51:31.663Z,100680.66
2022-09-23T16:54:39.162Z,100675.31
2022-09-23T16:57:41.776Z,100677.09
2022-09-23T17:01:05.773Z,100684.91
2022-09-23T17:07:37.420Z,100674.34
2022-09-23T17:10:44.772Z,100675.25
2022-09-23T17:13:50.637Z,100676.69
2022-09-23T17:16:53.916Z,100670.94
2022-09-23T17:19:58.834Z,100679.56
2022-09-23T17:23:04.747Z,100688.69
2022-09-23T17:26:28.263Z,100690.12
2022-09-23T17:29:31.202Z,100683.88
2022-09-23T17:32:34.092Z,100685.28
2022-09-23T17:35:40.078Z,100695.81
2022-09-23T17:38:46.728Z,100686.62
2022-09-23T17:41:56.324Z,100683.34
2022-09-23T17:44:59.444Z,100683.44
2022-09-23T17:48:27.597Z,100686.53
2022-09-23T17:51:30.179Z,100682.84
2022-09-23T17:54:55.124Z,100690.16
2022-09-23T17:57:57.856Z,100688.97
2022-09-23T18:01:01.552Z,100694.09
2022-09-23T18:04:10.324Z,100694.47
2022-09-23T18:07:15.719Z,100698.13
2022-09-23T18:10:18.425Z,100703.47
2022-09-23T18:13:20.917Z,100699.91
2022-09-23T18:16:34.764Z,100697.06
2022-09-23T18:19:37.143Z,100703.41
2022-09-23T18:22:40.320Z,100701.41
2022-09-23T18:25:42.745Z,100707.84
2022-09-23T18:28:48.203Z,100702.63
2022-09-23T18:31:51.520Z,100709.88
2022-09-23T18:34:57.805Z,100712.19
2022-09-23T18:38:05.165Z,100712.00
2022-09-23T18:41:12.481Z,100715.25
2022-09-23T18:44:16.299Z,100710.06
2022-09-23T18:47:39.001Z,100715.25
2022-09-23T18:50:43.182Z,100717.94
2022-09-23T18:53:50.317Z,100720.22
2022-09-23T18:56:55.605Z,100720.56
2022-09-23T19:00:00.901Z,100723.56
2022-09-23T19:03:05.560Z,100721.37
2022-09-23T19:06:11.687Z,100713.22
2022-09-23T19:09:18.186Z,100715.75
2022-09-23T19:12:25.753Z,100716.31
2022-09-23T19:15:30.787Z,100713.00
2022-09-23T19:18:34.313Z,100715.97
2022-09-23T19:21:38.452Z,100715.75
2022-09-23T19:24:41.478Z,100720.78
2022-09-23T19:27:48.993Z,100720.09
2022-09-23T19:30:53.173Z,100720.97
2022-09-23T19:33:59.560Z,100718.69
2022-09-23T19:37:05.263Z,100716.09
2022-09-23T19:40:08.518Z,100709.09
2022-09-23T19:43:15.779Z,100712.41
2022-09-23T19:46:19.486Z,100708.37
2022-09-23T19:49:27.168Z,100716.16
2022-09-23T19:52:31.893Z,100721.53
2022-09-23T19:55:38.086Z,100720.84
2022-09-23T19:58:42.853Z,100726.09
2022-09-23T20:01:45.723Z,100728.59
2022-09-23T20:04:51.334Z,100727.84
2022-09-23T20:07:55.429Z,100729.53
2022-09-23T20:11:11.526Z,100724.06
2022-09-23T20:14:14.331Z,100719.75
2022-09-23T20:17:19.113Z,100722.31
2022-09-23T20:20:23.772Z,100721.59
2022-09-23T20:23:29.000Z,100718.97
2022-09-23T20:26:50.124Z,100719.19
2022-09-23T20:29:57.063Z,100718.09
2022-09-23T20:33:00.705Z,100723.81
2022-09-23T20:36:03.564Z,100721.47
2022-09-23T20:39:07.269Z,100716.72
2022-09-23T20:42:10.171Z,100723.97
2022-09-23T20:45:12.608Z,100728.03
2022-09-23T20:48:15.819Z,100719.56
2022-09-23T20:51:18.574Z,100718.59
2022-09-23T20:54:22.134Z,100723.12
2022-09-23T20:57:24.998Z,100712.69
2022-09-23T21:00:27.763Z,100717.72
2022-09-23T21:03:35.245Z,100709.09
2022-09-23T21:06:41.052Z,100707.69
2022-09-23T21:09:45.971Z,100710.91
2022-09-23T21:12:50.480Z,100717.47
2022-09-23T21:15:53.033Z,100713.22
2022-09-23T21:18:56.311Z,100721.78
2022-09-23T21:21:58.708Z,100713.53
2022-09-23T21:25:27.044Z,100719.63
2022-09-23T21:28:26.623Z,100721.81
2022-09-23T21:31:38.846Z,100726.94
2022-09-23T21:34:42.096Z,100719.44
2022-09-23T21:37:45.914Z,100713.25
2022-09-23T21:40:57.939Z,100711.28
2022-09-23T21:44:04.782Z,100720.25
2022-09-23T21:47:32.445Z,100727.31
2022-09-23T21:50:40.807Z,100726.31
2022-09-23T21:53:47.294Z,100722.34
2022-09-23T21:56:50.210Z,100729.91
2022-09-23T21:59:58.796Z,100728.44
2022-09-23T22:03:01.491Z,100728.81
2022-09-23T22:06:13.472Z,100732.53
2022-09-23T22:09:18.776Z,100728.28
2022-09-23T22:12:21.535Z,100726.50
2022-09-23T22:15:24.036Z,100725.50
2022-09-23T22:18:28.865Z,100725.13
2022-09-23T22:21:37.419Z,100728.19
2022-09-23T22:24:46.114Z,100725.00
2022-09-23T22:28:08.006Z,100725.16
2022-09-23T22:31:29.626Z,100718.94
2022-09-23T22:34:48.939Z,100729.69
2022-09-23T22:37:58.056Z,100719.38
2022-09-23T22:41:05.354Z,100720.03
2022-09-23T22:44:08.276Z,100718.84
2022-09-23T22:47:10.870Z,100718.63
2022-09-23T22:50:16.718Z,100723.31
2022-09-23T22:53:19.404Z,100725.69
2022-09-23T22:56:22.409Z,100736.84
2022-09-23T22:59:30.034Z,100735.66
2022-09-23T23:02:33.060Z,100726.38
2022-09-23T23:05:35.436Z,100725.16
2022-09-23T23:08:41.831Z,100721.53
2022-09-23T23:12:07.473Z,100720.72
2022-09-23T23:15:13.339Z,100728.03
2022-09-23T23:18:16.080Z,100728.66
2022-09-23T23:21:22.762Z,100730.66
2022-09-23T23:24:27.364Z,100733.72
2022-09-23T23:27:30.334Z,100723.84
2022-09-23T23:30:34.961Z,100729.28
2022-09-23T23:33:42.148Z,100721.03
2022-09-23T23:36:48.014Z,100722.47
2022-09-23T23:39:52.739Z,100724.47
2022-09-23T23:42:58.694Z,100723.66
2022-09-23T23:46:04.640Z,100722.09
2022-09-23T23:49:07.368Z,100728.16
2022-09-23T23:52:10.581Z,100725.09
2022-09-23T23:55:38.097Z,100722.91
2022-09-23T23:58:46.463Z,100718.47
